Archival Weather

Teniente Col Carmelo Peralta

Teniente Col Carmelo Peralta, Paraguay (SGCO)

Report from: Wednesday, December 6, 2023 6:00 AM -03
Current time: Tuesday, April 23, 2024 2:57 AM -04

Current weather – Weather history – Daily summaries
Weather forecast

Temperature25.0°C (77.0°F)
Dew point24.0°C (75.2°F)
Winds 4 kts (2.1 m/s, 4.6 mph) Northeast (50°)
Visibility6.2 mi. (10 km)
Clouds Few clouds 4,000 ft. (1,219 m)
Altimeter29.80 in.Hg (1009 mB)
Relative humidity94 %
Density altitude1,701 ft. (518 m)
Flight conditions Visual Meteorological Conditions
Raw dataSGCO 060900Z 05004KT 9999 FEW040 25/24 Q1009
An error has occurred. This application may no longer respond until reloaded. Reload 🗙